KED weather

Kaédi Airport
Kaédi, Gorgol Region, Mauritania

Public forecast

Using degrees Celsius for public forecast. Weather courtesy of forecast.io.

Closest aviation weather report (METAR) to Kaédi Airport

Closest report is Ouro Sogui Airport, 35.6 nm (66.0 km) SSE. Retrieved 2020/02/20 00:00 UTC (2 hours ago):

GOSM 200000Z 08002KT CAVOK 27/06 Q1009

Closest aviation forecast (TAF) to Kaédi Airport

Closest forecast is Saint Louis Airport, 170.6 nm (316.0 km) W. Retrieved 2020-02-20 00:00 UTC (2 hours ago):

TAF GOGS 192322Z 2000/2024 34005KT CAVOK TAF GOSS 192322Z 2000/2024 01006KT CAVOK